Time,TemperatureF,DewpointF,PressureIn,WindDirection,WindDirectionDegrees,WindSpeedMPH,WindSpeedGustMPH,Humidity,HourlyPrecipIn,Conditions,Clouds,dailyrainin,SoftwareType,DateUTC
2013-07-09 00:01:00,63.8,56.0,30.10,NW,315,2.0,3.0,78,0.00,,,0.00,Rainwise IP-100,2013-07-09 04:01:00,
2013-07-09 00:06:00,63.3,56.0,30.12,NW,315,0.0,2.0,79,0.00,,,0.00,Rainwise IP-100,2013-07-09 04:06:00,
2013-07-09 00:11:00,62.9,57.0,30.13,NW,315,1.0,1.0,81,0.00,,,0.00,Rainwise IP-100,2013-07-09 04:11:00,
2013-07-09 00:16:00,62.4,57.0,30.14,NW,315,0.0,2.0,82,0.00,,,0.00,Rainwise IP-100,2013-07-09 04:16:00,
2013-07-09 00:21:00,62.0,56.0,30.12,NNW,337,3.0,3.0,83,0.00,,,0.00,Rainwise IP-100,2013-07-09 04:21:00,
2013-07-09 00:26:00,61.4,56.0,30.15,NNW,337,2.0,3.0,84,0.00,,,0.00,Rainwise IP-100,2013-07-09 04:26:00,
2013-07-09 00:31:00,61.0,56.0,30.15,NW,315,0.0,2.0,85,0.00,,,0.00,Rainwise IP-100,2013-07-09 04:31:00,
2013-07-09 00:36:00,60.8,56.0,30.14,NNW,337,1.0,1.0,85,0.00,,,0.00,Rainwise IP-100,2013-07-09 04:36:00,
2013-07-09 00:41:00,60.7,56.0,30.11,NNW,337,2.0,2.0,86,0.00,,,0.00,Rainwise IP-100,2013-07-09 04:41:00,
2013-07-09 00:46:00,60.5,56.0,30.15,NNW,337,1.0,2.0,86,0.00,,,0.00,Rainwise IP-100,2013-07-09 04:46:00,
2013-07-09 00:51:00,60.5,56.0,30.13,NNW,337,1.0,2.0,86,0.00,,,0.00,Rainwise IP-100,2013-07-09 04:51:00,
2013-07-09 00:56:00,60.5,56.0,30.11,NNW,337,0.0,2.0,86,0.00,,,0.00,Rainwise IP-100,2013-07-09 04:56:00,
2013-07-09 01:01:00,60.6,56.0,30.13,NNW,337,1.0,2.0,85,0.00,,,0.00,Rainwise IP-100,2013-07-09 05:01:00,
2013-07-09 01:06:00,60.6,56.0,30.13,NNW,337,0.0,1.0,85,0.00,,,0.00,Rainwise IP-100,2013-07-09 05:06:00,
2013-07-09 01:11:00,60.5,56.0,30.14,NNW,337,2.0,2.0,85,0.00,,,0.00,Rainwise IP-100,2013-07-09 05:11:00,
2013-07-09 01:16:00,60.6,56.0,30.13,NNW,337,0.0,2.0,85,0.00,,,0.00,Rainwise IP-100,2013-07-09 05:16:00,
2013-07-09 01:21:00,60.8,56.0,30.14,NNW,337,0.0,2.0,84,0.00,,,0.00,Rainwise IP-100,2013-07-09 05:21:00,
2013-07-09 01:26:00,60.8,56.0,30.12,NNW,337,0.0,2.0,84,0.00,,,0.00,Rainwise IP-100,2013-07-09 05:26:00,
2013-07-09 01:31:00,60.7,56.0,30.14,NNW,337,0.0,0.0,85,0.00,,,0.00,Rainwise IP-100,2013-07-09 05:31:00,
2013-07-09 01:36:00,60.6,56.0,30.12,NNW,337,0.0,1.0,85,0.00,,,0.00,Rainwise IP-100,2013-07-09 05:36:00,
2013-07-09 01:41:00,60.4,56.0,30.12,NNW,337,0.0,0.0,86,0.00,,,0.00,Rainwise IP-100,2013-07-09 05:41:00,
2013-07-09 01:46:00,60.4,56.0,30.13,NNW,337,0.0,1.0,86,0.00,,,0.00,Rainwise IP-100,2013-07-09 05:46:00,
2013-07-09 01:51:00,60.4,56.0,30.15,NNW,337,0.0,0.0,86,0.00,,,0.00,Rainwise IP-100,2013-07-09 05:51:00,
2013-07-09 01:56:00,60.4,56.0,30.15,NNW,337,0.0,1.0,85,0.00,,,0.00,Rainwise IP-100,2013-07-09 05:56:00,
2013-07-09 02:01:00,60.6,56.0,30.14,West,270,0.0,0.0,85,0.00,,,0.00,Rainwise IP-100,2013-07-09 06:01:00,
2013-07-09 02:06:00,61.0,56.0,30.11,WSW,247,0.0,0.0,85,0.00,,,0.00,Rainwise IP-100,2013-07-09 06:06:00,
2013-07-09 02:11:00,61.2,56.0,30.15,NNW,337,1.0,2.0,85,0.00,,,0.00,Rainwise IP-100,2013-07-09 06:11:00,
2013-07-09 02:16:00,61.2,56.0,30.11,NNW,337,0.0,2.0,85,0.00,,,0.00,Rainwise IP-100,2013-07-09 06:16:00,
2013-07-09 02:21:00,61.1,56.0,30.14,NNW,337,0.0,0.0,85,0.00,,,0.00,Rainwise IP-100,2013-07-09 06:21:00,
2013-07-09 02:26:00,61.0,56.0,30.13,West,270,0.0,1.0,85,0.00,,,0.00,Rainwise IP-100,2013-07-09 06:26:00,
2013-07-09 02:31:00,61.0,56.0,30.14,West,270,2.0,2.0,85,0.00,,,0.00,Rainwise IP-100,2013-07-09 06:31:00,
2013-07-09 02:36:00,61.3,56.0,30.11,West,270,0.0,2.0,84,0.00,,,0.00,Rainwise IP-100,2013-07-09 06:36:00,
2013-07-09 02:41:00,61.6,56.0,30.12,West,270,0.0,0.0,83,0.00,,,0.00,Rainwise IP-100,2013-07-09 06:41:00,
2013-07-09 02:46:00,61.5,56.0,30.14,West,270,2.0,2.0,83,0.00,,,0.00,Rainwise IP-100,2013-07-09 06:46:00,
2013-07-09 02:51:00,61.3,56.0,30.12,West,270,0.0,1.0,84,0.00,,,0.00,Rainwise IP-100,2013-07-09 06:51:00,
2013-07-09 02:56:00,61.0,56.0,30.14,West,270,0.0,0.0,85,0.00,,,0.00,Rainwise IP-100,2013-07-09 06:56:00,
2013-07-09 03:01:00,60.8,56.0,30.14,WSW,247,2.0,0.0,85,0.00,,,0.00,Rainwise IP-100,2013-07-09 07:01:00,
2013-07-09 03:06:00,60.7,56.0,30.11,SSW,202,2.0,2.0,86,0.00,,,0.00,Rainwise IP-100,2013-07-09 07:06:00,
2013-07-09 03:11:00,61.1,56.0,30.13,SSE,157,0.0,2.0,85,0.00,,,0.00,Rainwise IP-100,2013-07-09 07:11:00,
2013-07-09 03:16:00,61.4,56.0,30.14,SE,135,0.0,0.0,84,0.00,,,0.00,Rainwise IP-100,2013-07-09 07:16:00,
2013-07-09 03:21:00,61.4,56.0,30.12,SE,135,1.0,1.0,84,0.00,,,0.00,Rainwise IP-100,2013-07-09 07:21:00,
2013-07-09 03:26:00,61.4,56.0,30.12,SE,135,2.0,4.0,84,0.00,,,0.00,Rainwise IP-100,2013-07-09 07:26:00,
2013-07-09 03:31:00,61.3,56.0,30.11,SSE,157,2.0,3.0,84,0.00,,,0.00,Rainwise IP-100,2013-07-09 07:31:00,
2013-07-09 03:36:00,61.1,56.0,30.13,SSE,157,0.0,2.0,84,0.00,,,0.00,Rainwise IP-100,2013-07-09 07:36:00,
2013-07-09 03:41:00,61.1,56.0,30.13,ESE,112,0.0,1.0,85,0.00,,,0.00,Rainwise IP-100,2013-07-09 07:41:00,
2013-07-09 03:46:00,61.2,56.0,30.13,ESE,112,0.0,1.0,85,0.00,,,0.00,Rainwise IP-100,2013-07-09 07:46:00,
2013-07-09 03:52:00,61.0,56.0,30.14,ENE,67,0.0,1.0,85,0.00,,,0.00,Rainwise IP-100,2013-07-09 07:52:00,
2013-07-09 03:57:00,60.8,56.0,30.11,ENE,67,0.0,0.0,86,0.00,,,0.00,Rainwise IP-100,2013-07-09 07:57:00,
2013-07-09 04:02:00,60.8,56.0,30.12,ENE,67,0.0,0.0,86,0.00,,,0.00,Rainwise IP-100,2013-07-09 08:02:00,
2013-07-09 04:07:00,60.9,56.0,30.14,East,90,0.0,1.0,86,0.00,,,0.00,Rainwise IP-100,2013-07-09 08:07:00,
2013-07-09 04:12:00,61.1,56.0,30.15,East,90,0.0,1.0,86,0.00,,,0.00,Rainwise IP-100,2013-07-09 08:12:00,
2013-07-09 04:17:00,61.4,57.0,30.13,East,90,0.0,0.0,86,0.00,,,0.00,Rainwise IP-100,2013-07-09 08:17:00,
2013-07-09 04:22:00,61.4,57.0,30.13,East,90,0.0,0.0,86,0.00,,,0.00,Rainwise IP-100,2013-07-09 08:22:00,
2013-07-09 04:27:00,61.5,57.0,30.13,East,90,1.0,1.0,85,0.00,,,0.00,Rainwise IP-100,2013-07-09 08:27:00,
2013-07-09 04:32:00,61.8,56.0,30.16,SSE,157,2.0,3.0,84,0.00,,,0.00,Rainwise IP-100,2013-07-09 08:32:00,
2013-07-09 04:37:00,62.4,56.0,30.12,ESE,112,3.0,5.0,80,0.00,,,0.00,Rainwise IP-100,2013-07-09 08:37:00,
2013-07-09 04:42:00,62.7,55.0,30.12,SE,135,2.0,5.0,77,0.00,,,0.00,Rainwise IP-100,2013-07-09 08:42:00,
2013-07-09 04:47:00,62.6,54.0,30.12,SE,135,4.0,6.0,76,0.00,,,0.00,Rainwise IP-100,2013-07-09 08:47:00,
2013-07-09 04:52:00,62.6,54.0,30.13,SE,135,4.0,5.0,76,0.00,,,0.00,Rainwise IP-100,2013-07-09 08:52:00,
2013-07-09 04:57:00,62.5,54.0,30.15,SSE,157,4.0,4.0,76,0.00,,,0.00,Rainwise IP-100,2013-07-09 08:57:00,
2013-07-09 05:02:00,62.4,55.0,30.16,ESE,112,3.0,5.0,77,0.00,,,0.00,Rainwise IP-100,2013-07-09 09:02:00,
2013-07-09 05:07:00,62.1,54.0,30.14,SE,135,4.0,7.0,77,0.00,,,0.00,Rainwise IP-100,2013-07-09 09:07:00,
2013-07-09 05:12:00,61.9,55.0,30.16,ESE,112,3.0,5.0,79,0.00,,,0.00,Rainwise IP-100,2013-07-09 09:12:00,
2013-07-09 05:17:00,61.8,55.0,30.17,SSE,157,5.0,5.0,80,0.00,,,0.00,Rainwise IP-100,2013-07-09 09:17:00,
2013-07-09 05:22:00,61.5,56.0,30.14,SE,135,4.0,5.0,81,0.00,,,0.00,Rainwise IP-100,2013-07-09 09:22:00,
2013-07-09 05:27:00,61.3,56.0,30.14,ESE,112,4.0,5.0,83,0.00,,,0.00,Rainwise IP-100,2013-07-09 09:27:00,
2013-07-09 05:32:00,61.2,56.0,30.13,SE,135,5.0,5.0,84,0.00,,,0.00,Rainwise IP-100,2013-07-09 09:32:00,
2013-07-09 05:37:00,61.2,56.0,30.14,ESE,112,4.0,5.0,85,0.00,,,0.00,Rainwise IP-100,2013-07-09 09:37:00,
2013-07-09 05:42:00,61.1,56.0,30.14,SE,135,4.0,6.0,86,0.00,,,0.00,Rainwise IP-100,2013-07-09 09:42:00,
2013-07-09 05:47:00,60.9,57.0,30.14,ESE,112,4.0,7.0,88,0.00,,,0.00,Rainwise IP-100,2013-07-09 09:47:00,
2013-07-09 05:52:00,60.8,57.0,30.13,East,90,4.0,7.0,89,0.00,,,0.00,Rainwise IP-100,2013-07-09 09:52:00,
2013-07-09 05:57:00,60.7,57.0,30.14,East,90,4.0,4.0,91,0.00,,,0.00,Rainwise IP-100,2013-07-09 09:57:00,
2013-07-09 06:02:00,60.6,58.0,30.14,ESE,112,0.0,4.0,92,0.00,,,0.00,Rainwise IP-100,2013-07-09 10:02:00,
2013-07-09 06:07:00,60.5,58.0,30.14,SSW,202,2.0,3.0,93,0.06,,,0.01,Rainwise IP-100,2013-07-09 10:07:00,
2013-07-09 06:12:00,60.4,58.0,30.17,SSW,202,3.0,4.0,93,0.06,,,0.01,Rainwise IP-100,2013-07-09 10:12:00,
2013-07-09 06:17:00,60.3,58.0,30.16,SSE,157,3.0,4.0,94,0.00,,,0.01,Rainwise IP-100,2013-07-09 10:17:00,
2013-07-09 06:22:00,60.2,58.0,30.15,South,180,1.0,3.0,95,0.00,,,0.01,Rainwise IP-100,2013-07-09 10:22:00,
2013-07-09 06:27:00,60.3,58.0,30.16,South,180,0.0,1.0,95,0.00,,,0.01,Rainwise IP-100,2013-07-09 10:27:00,
2013-07-09 06:32:00,60.3,59.0,30.15,NW,315,1.0,1.0,96,0.00,,,0.01,Rainwise IP-100,2013-07-09 10:32:00,
2013-07-09 06:37:00,60.3,59.0,30.16,NNW,337,0.0,2.0,96,0.00,,,0.01,Rainwise IP-100,2013-07-09 10:37:00,
2013-07-09 06:42:00,60.3,59.0,30.19,NNW,337,0.0,2.0,96,0.00,,,0.01,Rainwise IP-100,2013-07-09 10:42:00,
2013-07-09 06:47:00,60.3,59.0,30.17,NNW,337,2.0,2.0,96,0.00,,,0.01,Rainwise IP-100,2013-07-09 10:47:00,
2013-07-09 06:52:00,60.3,59.0,30.17,NNW,337,1.0,2.0,96,0.00,,,0.01,Rainwise IP-100,2013-07-09 10:52:00,
2013-07-09 06:57:00,60.2,59.0,30.16,NW,315,1.0,2.0,97,0.00,,,0.01,Rainwise IP-100,2013-07-09 10:57:00,
2013-07-09 07:02:00,60.2,59.0,30.16,NW,315,1.0,1.0,97,0.00,,,0.01,Rainwise IP-100,2013-07-09 11:02:00,
2013-07-09 07:07:00,60.1,59.0,30.16,WNW,292,0.0,2.0,97,0.00,,,0.01,Rainwise IP-100,2013-07-09 11:07:00,
2013-07-09 07:12:00,60.0,59.0,30.17,WNW,292,0.0,1.0,97,0.00,,,0.01,Rainwise IP-100,2013-07-09 11:12:00,
2013-07-09 07:17:00,60.1,59.0,30.18,WNW,292,0.0,0.0,97,0.00,,,0.01,Rainwise IP-100,2013-07-09 11:17:00,
2013-07-09 07:22:00,60.3,59.0,30.18,ESE,112,2.0,3.0,97,0.00,,,0.01,Rainwise IP-100,2013-07-09 11:22:00,
2013-07-09 07:27:00,60.5,59.0,30.16,ENE,67,0.0,3.0,97,0.00,,,0.01,Rainwise IP-100,2013-07-09 11:27:00,
2013-07-09 07:32:00,60.6,59.0,30.19,WSW,247,0.0,1.0,97,0.00,,,0.01,Rainwise IP-100,2013-07-09 11:32:00,
2013-07-09 07:37:00,60.6,59.0,30.19,NNE,22,2.0,2.0,97,0.00,,,0.01,Rainwise IP-100,2013-07-09 11:37:00,
2013-07-09 07:42:00,60.6,59.0,30.19,NE,45,1.0,2.0,97,0.00,,,0.01,Rainwise IP-100,2013-07-09 11:42:00,
2013-07-09 07:47:00,60.6,59.0,30.19,NNW,337,2.0,2.0,97,0.00,,,0.01,Rainwise IP-100,2013-07-09 11:47:00,
2013-07-09 07:52:00,60.6,59.0,30.19,NNW,337,0.0,2.0,97,0.00,,,0.01,Rainwise IP-100,2013-07-09 11:52:00,
2013-07-09 07:57:00,60.7,59.0,30.19,East,90,0.0,1.0,97,0.00,,,0.01,Rainwise IP-100,2013-07-09 11:57:00,
2013-07-09 08:02:00,60.8,59.0,30.19,ENE,67,0.0,2.0,97,0.00,,,0.01,Rainwise IP-100,2013-07-09 12:02:00,
2013-07-09 08:07:00,60.8,59.0,30.17,ESE,112,2.0,2.0,97,0.00,,,0.01,Rainwise IP-100,2013-07-09 12:07:00,
2013-07-09 08:12:00,60.7,59.0,30.19,ESE,112,3.0,4.0,97,0.00,,,0.01,Rainwise IP-100,2013-07-09 12:12:00,
2013-07-09 08:17:00,60.7,59.0,30.20,SSE,157,3.0,4.0,97,0.00,,,0.01,Rainwise IP-100,2013-07-09 12:17:00,
2013-07-09 08:22:00,60.7,59.0,30.16,ESE,112,3.0,4.0,97,0.00,,,0.01,Rainwise IP-100,2013-07-09 12:22:00,
2013-07-09 08:27:00,60.7,59.0,30.19,SE,135,4.0,4.0,97,0.00,,,0.01,Rainwise IP-100,2013-07-09 12:27:00,
2013-07-09 08:32:00,60.6,59.0,30.18,ESE,112,1.0,3.0,97,0.00,,,0.01,Rainwise IP-100,2013-07-09 12:32:00,
2013-07-09 08:37:00,60.5,59.0,30.18,East,90,2.0,4.0,97,0.00,,,0.01,Rainwise IP-100,2013-07-09 12:37:00,
2013-07-09 08:42:00,60.7,60.0,30.20,East,90,2.0,3.0,98,0.00,,,0.01,Rainwise IP-100,2013-07-09 12:42:00,
2013-07-09 08:47:00,60.8,60.0,30.18,ENE,67,0.0,2.0,98,0.00,,,0.01,Rainwise IP-100,2013-07-09 12:47:00,
2013-07-09 08:52:00,60.9,60.0,30.16,ENE,67,0.0,3.0,98,0.00,,,0.01,Rainwise IP-100,2013-07-09 12:52:00,
2013-07-09 08:57:00,60.9,60.0,30.17,ENE,67,0.0,2.0,98,0.00,,,0.01,Rainwise IP-100,2013-07-09 12:57:00,
2013-07-09 09:02:00,61.1,60.0,30.16,NNE,22,0.0,2.0,98,0.00,,,0.01,Rainwise IP-100,2013-07-09 13:02:00,
2013-07-09 09:07:00,61.3,60.0,30.19,ESE,112,0.0,1.0,98,0.00,,,0.01,Rainwise IP-100,2013-07-09 13:07:00,
2013-07-09 09:12:00,61.3,60.0,30.18,ESE,112,0.0,1.0,98,0.00,,,0.01,Rainwise IP-100,2013-07-09 13:12:00,
2013-07-09 09:17:00,61.4,61.0,30.19,ESE,112,1.0,2.0,98,0.00,,,0.01,Rainwise IP-100,2013-07-09 13:17:00,
2013-07-09 09:22:00,61.5,61.0,30.20,ESE,112,0.0,1.0,98,0.00,,,0.01,Rainwise IP-100,2013-07-09 13:22:00,
2013-07-09 09:27:00,61.8,61.0,30.20,ESE,112,0.0,1.0,98,0.00,,,0.01,Rainwise IP-100,2013-07-09 13:27:00,
2013-07-09 09:32:00,62.1,61.0,30.19,WSW,247,1.0,3.0,98,0.00,,,0.01,Rainwise IP-100,2013-07-09 13:32:00,
2013-07-09 09:37:00,62.1,61.0,30.18,WSW,247,0.0,1.0,98,0.00,,,0.01,Rainwise IP-100,2013-07-09 13:37:00,
2013-07-09 09:42:00,62.2,61.0,30.18,NNE,22,0.0,3.0,98,0.00,,,0.01,Rainwise IP-100,2013-07-09 13:42:00,
2013-07-09 09:47:00,62.3,61.0,30.20,NNW,337,2.0,2.0,98,0.00,,,0.01,Rainwise IP-100,2013-07-09 13:47:00,
2013-07-09 09:52:00,62.3,61.0,30.20,NE,45,1.0,1.0,98,0.00,,,0.01,Rainwise IP-100,2013-07-09 13:52:00,
2013-07-09 09:57:00,62.5,62.0,30.19,NNE,22,3.0,3.0,98,0.00,,,0.01,Rainwise IP-100,2013-07-09 13:57:00,
2013-07-09 10:02:00,62.6,61.0,30.19,NE,45,2.0,3.0,97,0.00,,,0.01,Rainwise IP-100,2013-07-09 14:02:00,
2013-07-09 10:07:00,62.5,61.0,30.17,SSE,157,2.0,3.0,97,0.00,,,0.01,Rainwise IP-100,2013-07-09 14:07:00,
2013-07-09 10:12:00,62.4,61.0,30.18,SE,135,3.0,3.0,97,0.00,,,0.01,Rainwise IP-100,2013-07-09 14:12:00,
2013-07-09 10:17:00,62.5,61.0,30.16,SE,135,0.0,3.0,97,0.00,,,0.01,Rainwise IP-100,2013-07-09 14:17:00,
2013-07-09 10:22:00,62.7,61.0,30.18,SE,135,3.0,3.0,97,0.00,,,0.01,Rainwise IP-100,2013-07-09 14:22:00,
2013-07-09 10:27:00,62.8,61.0,30.20,South,180,1.0,3.0,97,0.00,,,0.01,Rainwise IP-100,2013-07-09 14:27:00,
2013-07-09 10:32:00,62.9,62.0,30.20,South,180,2.0,4.0,97,0.00,,,0.01,Rainwise IP-100,2013-07-09 14:32:00,
2013-07-09 10:37:00,63.1,62.0,30.20,SE,135,4.0,4.0,97,0.00,,,0.01,Rainwise IP-100,2013-07-09 14:37:00,
2013-07-09 10:42:00,62.9,62.0,30.17,SSE,157,4.0,4.0,97,0.00,,,0.01,Rainwise IP-100,2013-07-09 14:42:00,
2013-07-09 10:47:00,62.6,61.0,30.18,ESE,112,4.0,5.0,97,0.00,,,0.01,Rainwise IP-100,2013-07-09 14:47:00,
2013-07-09 10:52:00,62.6,62.0,30.19,ESE,112,4.0,5.0,98,0.00,,,0.01,Rainwise IP-100,2013-07-09 14:52:00,
2013-07-09 10:57:00,62.5,62.0,30.20,ESE,112,4.0,7.0,98,0.00,,,0.01,Rainwise IP-100,2013-07-09 14:57:00,
2013-07-09 11:02:00,62.3,61.0,30.20,South,180,4.0,6.0,98,0.00,,,0.01,Rainwise IP-100,2013-07-09 15:02:00,
2013-07-09 11:07:00,62.3,61.0,30.20,South,180,5.0,6.0,98,0.00,,,0.01,Rainwise IP-100,2013-07-09 15:07:00,
2013-07-09 11:12:00,62.2,61.0,30.19,SSW,202,4.0,6.0,99,0.00,,,0.01,Rainwise IP-100,2013-07-09 15:12:00,
2013-07-09 11:17:00,62.1,61.0,30.18,SE,135,4.0,5.0,99,0.00,,,0.01,Rainwise IP-100,2013-07-09 15:17:00,
2013-07-09 11:22:00,62.2,61.0,30.19,South,180,4.0,5.0,99,0.00,,,0.01,Rainwise IP-100,2013-07-09 15:22:00,
2013-07-09 11:27:00,62.2,61.0,30.20,SSW,202,4.0,7.0,99,0.00,,,0.01,Rainwise IP-100,2013-07-09 15:27:00,
2013-07-09 11:32:00,62.1,61.0,30.18,SSE,157,4.0,7.0,99,0.00,,,0.01,Rainwise IP-100,2013-07-09 15:32:00,
2013-07-09 11:37:00,62.0,61.0,30.21,SSE,157,5.0,7.0,99,0.00,,,0.01,Rainwise IP-100,2013-07-09 15:37:00,
2013-07-09 11:42:00,61.8,61.0,30.19,SSE,157,3.0,7.0,99,0.00,,,0.01,Rainwise IP-100,2013-07-09 15:42:00,
2013-07-09 11:47:00,61.9,61.0,30.17,SE,135,3.0,7.0,99,0.00,,,0.01,Rainwise IP-100,2013-07-09 15:47:00,
2013-07-09 11:52:00,61.8,61.0,30.17,SSE,157,5.0,7.0,99,0.00,,,0.01,Rainwise IP-100,2013-07-09 15:52:00,
2013-07-09 11:57:00,61.6,61.0,30.18,SSE,157,4.0,0.0,98,0.00,,,0.01,Rainwise IP-100,2013-07-09 15:57:00,
2013-07-09 12:02:00,61.4,61.0,30.19,SSW,202,5.0,7.0,98,0.00,,,0.01,Rainwise IP-100,2013-07-09 16:02:00,
2013-07-09 12:07:00,61.5,61.0,30.20,SSE,157,5.0,7.0,98,0.00,,,0.01,Rainwise IP-100,2013-07-09 16:07:00,
2013-07-09 12:12:00,61.5,61.0,30.19,South,180,6.0,7.0,98,0.00,,,0.01,Rainwise IP-100,2013-07-09 16:12:00,
2013-07-09 12:17:00,61.5,61.0,30.18,SSE,157,3.0,7.0,98,0.00,,,0.01,Rainwise IP-100,2013-07-09 16:17:00,
2013-07-09 12:22:00,61.5,61.0,30.19,SE,135,4.0,7.0,98,0.00,,,0.01,Rainwise IP-100,2013-07-09 16:22:00,
2013-07-09 12:27:00,61.6,61.0,30.17,SSE,157,5.0,6.0,98,0.00,,,0.01,Rainwise IP-100,2013-07-09 16:27:00,
2013-07-09 12:32:00,61.4,61.0,30.18,South,180,3.0,5.0,98,0.00,,,0.01,Rainwise IP-100,2013-07-09 16:32:00,
2013-07-09 12:37:00,61.4,61.0,30.19,South,180,6.0,6.0,98,0.00,,,0.01,Rainwise IP-100,2013-07-09 16:37:00,
2013-07-09 12:42:00,61.5,61.0,30.19,SSE,157,3.0,6.0,98,0.00,,,0.01,Rainwise IP-100,2013-07-09 16:42:00,
2013-07-09 12:47:00,61.7,61.0,30.19,SSW,202,3.0,3.0,98,0.00,,,0.01,Rainwise IP-100,2013-07-09 16:47:00,
2013-07-09 12:52:00,62.0,61.0,30.18,SSW,202,2.0,4.0,98,0.00,,,0.01,Rainwise IP-100,2013-07-09 16:52:00,
2013-07-09 12:57:00,62.1,61.0,30.16,SSW,202,2.0,4.0,98,0.00,,,0.01,Rainwise IP-100,2013-07-09 16:57:00,
2013-07-09 13:02:00,62.2,61.0,30.18,SSW,202,4.0,4.0,98,0.00,,,0.01,Rainwise IP-100,2013-07-09 17:02:00,
2013-07-09 13:07:00,62.3,61.0,30.18,South,180,5.0,5.0,98,0.00,,,0.01,Rainwise IP-100,2013-07-09 17:07:00,
2013-07-09 13:12:00,62.4,62.0,30.19,SSW,202,4.0,5.0,98,0.00,,,0.01,Rainwise IP-100,2013-07-09 17:12:00,
2013-07-09 13:17:00,62.6,62.0,30.19,SSW,202,0.0,4.0,98,0.00,,,0.01,Rainwise IP-100,2013-07-09 17:17:00,
2013-07-09 13:22:00,63.0,62.0,30.18,SSW,202,2.0,4.0,98,0.00,,,0.01,Rainwise IP-100,2013-07-09 17:22:00,
2013-07-09 13:27:00,63.2,62.0,30.16,South,180,3.0,6.0,98,0.00,,,0.01,Rainwise IP-100,2013-07-09 17:27:00,
2013-07-09 13:32:00,63.2,62.0,30.16,SSE,157,8.0,8.0,98,0.00,,,0.01,Rainwise IP-100,2013-07-09 17:32:00,
2013-07-09 13:37:00,63.3,62.0,30.17,SSE,157,2.0,8.0,97,0.00,,,0.01,Rainwise IP-100,2013-07-09 17:37:00,
2013-07-09 13:42:00,63.3,62.0,30.18,ESE,112,4.0,8.0,97,0.00,,,0.01,Rainwise IP-100,2013-07-09 17:42:00,
2013-07-09 13:47:00,63.4,62.0,30.18,SSE,157,6.0,9.0,97,0.00,,,0.01,Rainwise IP-100,2013-07-09 17:47:00,
2013-07-09 13:52:00,63.2,62.0,30.18,South,180,5.0,8.0,97,0.00,,,0.01,Rainwise IP-100,2013-07-09 17:52:00,
2013-07-09 13:57:00,63.0,62.0,30.18,SSE,157,3.0,8.0,97,0.00,,,0.01,Rainwise IP-100,2013-07-09 17:57:00,
2013-07-09 14:02:00,63.1,62.0,30.17,South,180,6.0,9.0,97,0.00,,,0.01,Rainwise IP-100,2013-07-09 18:02:00,
2013-07-09 14:07:00,63.0,62.0,30.17,SE,135,4.0,8.0,97,0.00,,,0.01,Rainwise IP-100,2013-07-09 18:07:00,
2013-07-09 14:12:00,62.7,61.0,30.16,ESE,112,4.0,8.0,97,0.00,,,0.01,Rainwise IP-100,2013-07-09 18:12:00,
2013-07-09 14:17:00,62.6,62.0,30.16,SSE,157,5.0,7.0,98,0.00,,,0.01,Rainwise IP-100,2013-07-09 18:17:00,
2013-07-09 14:22:00,62.5,62.0,30.18,SSE,157,5.0,9.0,98,0.00,,,0.01,Rainwise IP-100,2013-07-09 18:22:00,
2013-07-09 14:27:00,62.3,61.0,30.17,SE,135,5.0,8.0,98,0.00,,,0.01,Rainwise IP-100,2013-07-09 18:27:00,
2013-07-09 14:32:00,62.1,61.0,30.15,SSE,157,5.0,8.0,99,0.00,,,0.01,Rainwise IP-100,2013-07-09 18:32:00,
2013-07-09 14:37:00,61.9,61.0,30.19,SSE,157,4.0,8.0,99,0.00,,,0.01,Rainwise IP-100,2013-07-09 18:37:00,
2013-07-09 14:42:00,61.8,61.0,30.17,SSE,157,8.0,9.0,99,0.00,,,0.01,Rainwise IP-100,2013-07-09 18:42:00,
2013-07-09 14:47:00,61.7,61.0,30.17,South,180,6.0,9.0,99,0.00,,,0.01,Rainwise IP-100,2013-07-09 18:47:00,
2013-07-09 14:52:00,61.6,61.0,30.16,SSE,157,3.0,7.0,99,0.00,,,0.01,Rainwise IP-100,2013-07-09 18:52:00,
2013-07-09 14:57:00,61.5,61.0,30.18,SSE,157,5.0,7.0,99,0.00,,,0.01,Rainwise IP-100,2013-07-09 18:57:00,
2013-07-09 15:02:00,61.3,60.0,30.17,SSE,157,6.0,9.0,99,0.00,,,0.01,Rainwise IP-100,2013-07-09 19:02:00,
2013-07-09 15:07:00,61.1,60.0,30.16,SSW,202,5.0,5.0,99,0.00,,,0.01,Rainwise IP-100,2013-07-09 19:07:00,
2013-07-09 15:12:00,60.8,60.0,30.20,SE,135,6.0,9.0,99,0.00,,,0.01,Rainwise IP-100,2013-07-09 19:12:00,
2013-07-09 15:17:00,60.7,60.0,30.17,SSE,157,3.0,8.0,99,0.00,,,0.01,Rainwise IP-100,2013-07-09 19:17:00,
2013-07-09 15:22:00,60.8,60.0,30.16,SSE,157,6.0,8.0,100,0.00,,,0.01,Rainwise IP-100,2013-07-09 19:22:00,
2013-07-09 15:27:00,60.8,60.0,30.18,SSE,157,8.0,8.0,100,0.00,,,0.01,Rainwise IP-100,2013-07-09 19:27:00,
2013-07-09 15:32:00,60.8,60.0,30.18,SSE,157,5.0,8.0,100,0.00,,,0.01,Rainwise IP-100,2013-07-09 19:32:00,
2013-07-09 15:37:00,60.8,60.0,30.15,SW,225,5.0,9.0,100,0.00,,,0.01,Rainwise IP-100,2013-07-09 19:37:00,
2013-07-09 15:42:00,60.8,60.0,30.16,SSE,157,2.0,6.0,100,0.00,,,0.01,Rainwise IP-100,2013-07-09 19:42:00,
2013-07-09 15:47:00,60.7,60.0,30.18,South,180,4.0,7.0,100,0.00,,,0.01,Rainwise IP-100,2013-07-09 19:47:00,
2013-07-09 15:52:00,60.8,60.0,30.17,SSE,157,6.0,7.0,100,0.00,,,0.01,Rainwise IP-100,2013-07-09 19:52:00,
2013-07-09 15:57:00,60.8,60.0,30.15,SSW,202,4.0,8.0,100,0.00,,,0.01,Rainwise IP-100,2013-07-09 19:57:00,
2013-07-09 16:02:00,60.7,60.0,30.14,SSE,157,5.0,8.0,100,0.00,,,0.01,Rainwise IP-100,2013-07-09 20:02:00,
2013-07-09 16:07:00,60.7,60.0,30.15,South,180,6.0,8.0,100,0.00,,,0.01,Rainwise IP-100,2013-07-09 20:07:00,
2013-07-09 16:12:00,60.7,60.0,30.14,SSE,157,8.0,9.0,100,0.00,,,0.01,Rainwise IP-100,2013-07-09 20:12:00,
2013-07-09 16:17:00,60.5,60.0,30.15,SSW,202,8.0,0.0,100,0.00,,,0.01,Rainwise IP-100,2013-07-09 20:17:00,
2013-07-09 16:22:00,60.5,60.0,30.16,SSE,157,5.0,9.0,100,0.00,,,0.01,Rainwise IP-100,2013-07-09 20:22:00,
2013-07-09 16:27:00,60.5,60.0,30.18,SSE,157,3.0,8.0,100,0.00,,,0.01,Rainwise IP-100,2013-07-09 20:27:00,
2013-07-09 16:32:00,60.3,60.0,30.15,SSW,202,9.0,9.0,100,0.00,,,0.01,Rainwise IP-100,2013-07-09 20:32:00,
2013-07-09 16:37:00,60.2,60.0,30.14,SSE,157,8.0,0.0,100,0.00,,,0.01,Rainwise IP-100,2013-07-09 20:37:00,
2013-07-09 16:42:00,60.0,60.0,30.17,SSE,157,4.0,0.0,100,0.00,,,0.01,Rainwise IP-100,2013-07-09 20:42:00,
2013-07-09 16:47:00,59.9,60.0,30.14,South,180,6.0,9.0,100,0.00,,,0.01,Rainwise IP-100,2013-07-09 20:47:00,
2013-07-09 16:52:00,59.9,60.0,30.13,SE,135,7.0,9.0,100,0.00,,,0.01,Rainwise IP-100,2013-07-09 20:52:00,
2013-07-09 16:57:00,59.9,60.0,30.15,SE,135,4.0,9.0,100,0.00,,,0.01,Rainwise IP-100,2013-07-09 20:57:00,
2013-07-09 17:02:00,60.2,60.0,30.17,SSE,157,3.0,6.0,100,0.00,,,0.01,Rainwise IP-100,2013-07-09 21:02:00,
2013-07-09 17:07:00,60.4,60.0,30.14,ESE,112,4.0,7.0,100,0.00,,,0.01,Rainwise IP-100,2013-07-09 21:07:00,
2013-07-09 17:12:00,60.5,60.0,30.16,SE,135,4.0,7.0,100,0.00,,,0.01,Rainwise IP-100,2013-07-09 21:12:00,
2013-07-09 17:17:00,60.5,60.0,30.17,SSE,157,3.0,6.0,100,0.00,,,0.01,Rainwise IP-100,2013-07-09 21:17:00,
2013-07-09 17:22:00,60.6,60.0,30.17,ESE,112,4.0,7.0,100,0.00,,,0.01,Rainwise IP-100,2013-07-09 21:22:00,
2013-07-09 17:27:00,60.8,60.0,30.15,SE,135,4.0,6.0,100,0.00,,,0.01,Rainwise IP-100,2013-07-09 21:27:00,
2013-07-09 17:32:00,61.1,61.0,30.16,ESE,112,7.0,7.0,100,0.00,,,0.01,Rainwise IP-100,2013-07-09 21:32:00,
2013-07-09 17:37:00,61.2,61.0,30.17,ESE,112,2.0,7.0,100,0.00,,,0.01,Rainwise IP-100,2013-07-09 21:37:00,
2013-07-09 17:42:00,61.0,61.0,30.16,ESE,112,2.0,3.0,100,0.00,,,0.01,Rainwise IP-100,2013-07-09 21:42:00,
2013-07-09 17:47:00,60.8,60.0,30.14,ESE,112,4.0,4.0,100,0.00,,,0.01,Rainwise IP-100,2013-07-09 21:47:00,
2013-07-09 17:52:00,60.7,60.0,30.14,ENE,67,2.0,5.0,100,0.00,,,0.01,Rainwise IP-100,2013-07-09 21:52:00,
2013-07-09 17:57:00,60.9,61.0,30.18,SSE,157,6.0,6.0,100,0.00,,,0.01,Rainwise IP-100,2013-07-09 21:57:00,
2013-07-09 18:02:00,61.1,61.0,30.17,SSE,157,4.0,9.0,100,0.00,,,0.01,Rainwise IP-100,2013-07-09 22:02:00,
2013-07-09 18:07:00,61.0,61.0,30.15,SE,135,5.0,0.0,100,0.00,,,0.01,Rainwise IP-100,2013-07-09 22:07:00,
2013-07-09 18:12:00,60.8,60.0,30.16,SE,135,3.0,7.0,100,0.00,,,0.01,Rainwise IP-100,2013-07-09 22:12:00,
2013-07-09 18:17:00,60.5,60.0,30.16,ESE,112,3.0,7.0,100,0.00,,,0.01,Rainwise IP-100,2013-07-09 22:17:00,
2013-07-09 18:22:00,60.2,60.0,30.18,ESE,112,2.0,5.0,100,0.00,,,0.01,Rainwise IP-100,2013-07-09 22:22:00,
2013-07-09 18:27:00,59.8,59.0,30.17,ESE,112,6.0,6.0,100,0.00,,,0.01,Rainwise IP-100,2013-07-09 22:27:00,
2013-07-09 18:32:00,59.5,59.0,30.19,SSE,157,4.0,6.0,100,0.00,,,0.01,Rainwise IP-100,2013-07-09 22:32:00,
2013-07-09 18:37:00,59.6,59.0,30.17,SSE,157,2.0,7.0,100,0.00,,,0.01,Rainwise IP-100,2013-07-09 22:37:00,
2013-07-09 18:42:00,59.7,59.0,30.19,SSE,157,2.0,5.0,100,0.00,,,0.01,Rainwise IP-100,2013-07-09 22:42:00,
2013-07-09 18:47:00,59.8,59.0,30.18,SE,135,5.0,5.0,100,0.00,,,0.01,Rainwise IP-100,2013-07-09 22:47:00,
2013-07-09 18:52:00,59.8,59.0,30.20,ESE,112,6.0,6.0,100,0.00,,,0.01,Rainwise IP-100,2013-07-09 22:52:00,
2013-07-09 18:57:00,59.8,59.0,30.16,SE,135,4.0,6.0,100,0.00,,,0.01,Rainwise IP-100,2013-07-09 22:57:00,
2013-07-09 19:02:00,59.9,60.0,30.16,SE,135,4.0,5.0,100,0.00,,,0.01,Rainwise IP-100,2013-07-09 23:02:00,
2013-07-09 19:07:00,60.0,60.0,30.16,SSE,157,4.0,5.0,100,0.00,,,0.01,Rainwise IP-100,2013-07-09 23:07:00,
2013-07-09 19:12:00,60.1,60.0,30.15,SE,135,2.0,3.0,100,0.00,,,0.01,Rainwise IP-100,2013-07-09 23:12:00,
2013-07-09 19:17:00,60.2,60.0,30.16,ESE,112,1.0,4.0,100,0.00,,,0.01,Rainwise IP-100,2013-07-09 23:17:00,
2013-07-09 19:22:00,60.2,60.0,30.15,SSE,157,3.0,4.0,100,0.00,,,0.01,Rainwise IP-100,2013-07-09 23:22:00,
2013-07-09 19:27:00,60.2,60.0,30.17,SSE,157,4.0,4.0,100,0.00,,,0.01,Rainwise IP-100,2013-07-09 23:27:00,
2013-07-09 19:32:00,60.2,60.0,30.16,SSE,157,2.0,4.0,100,0.00,,,0.01,Rainwise IP-100,2013-07-09 23:32:00,
2013-07-09 19:37:00,60.1,60.0,30.15,SSE,157,4.0,5.0,100,0.00,,,0.01,Rainwise IP-100,2013-07-09 23:37:00,
2013-07-09 19:42:00,60.2,60.0,30.15,SSE,157,3.0,4.0,100,0.00,,,0.01,Rainwise IP-100,2013-07-09 23:42:00,
2013-07-09 19:47:00,60.3,60.0,30.15,SE,135,2.0,4.0,100,0.00,,,0.01,Rainwise IP-100,2013-07-09 23:47:00,
2013-07-09 19:52:00,60.4,60.0,30.14,SE,135,2.0,4.0,100,0.00,,,0.01,Rainwise IP-100,2013-07-09 23:52:00,
2013-07-09 19:57:00,60.4,60.0,30.16,SE,135,5.0,5.0,100,0.00,,,0.01,Rainwise IP-100,2013-07-09 23:57:00,
2013-07-09 20:02:00,60.5,60.0,30.15,SE,135,4.0,6.0,100,0.00,,,0.01,Rainwise IP-100,2013-07-10 00:02:00,
2013-07-09 20:07:00,60.7,60.0,30.17,SSE,157,2.0,5.0,100,0.00,,,0.01,Rainwise IP-100,2013-07-10 00:07:00,
2013-07-09 20:12:00,61.0,61.0,30.12,SSE,157,5.0,7.0,100,0.00,,,0.01,Rainwise IP-100,2013-07-10 00:12:00,
2013-07-09 20:17:00,61.3,61.0,30.14,ESE,112,4.0,7.0,100,0.00,,,0.01,Rainwise IP-100,2013-07-10 00:17:00,
2013-07-09 20:22:00,61.5,61.0,30.14,SSE,157,5.0,6.0,100,0.00,,,0.01,Rainwise IP-100,2013-07-10 00:22:00,
2013-07-09 20:27:00,61.7,61.0,30.14,SSE,157,7.0,7.0,100,0.00,,,0.01,Rainwise IP-100,2013-07-10 00:27:00,
2013-07-09 20:32:00,61.8,61.0,30.15,ESE,112,2.0,0.0,99,0.00,,,0.01,Rainwise IP-100,2013-07-10 00:32:00,
2013-07-09 20:37:00,61.9,61.0,30.15,South,180,4.0,7.0,99,0.00,,,0.01,Rainwise IP-100,2013-07-10 00:37:00,
2013-07-09 20:42:00,62.1,61.0,30.14,ESE,112,4.0,6.0,99,0.00,,,0.01,Rainwise IP-100,2013-07-10 00:42:00,
2013-07-09 20:47:00,62.1,61.0,30.16,SE,135,4.0,7.0,98,0.00,,,0.01,Rainwise IP-100,2013-07-10 00:47:00,
2013-07-09 20:52:00,62.3,61.0,30.16,South,180,7.0,8.0,98,0.00,,,0.01,Rainwise IP-100,2013-07-10 00:52:00,
2013-07-09 20:57:00,62.3,61.0,30.16,SSE,157,6.0,8.0,97,0.00,,,0.01,Rainwise IP-100,2013-07-10 00:57:00,
2013-07-09 21:02:00,62.2,61.0,30.16,SE,135,5.0,8.0,97,0.00,,,0.01,Rainwise IP-100,2013-07-10 01:02:00,
2013-07-09 21:07:00,62.1,61.0,30.16,ESE,112,3.0,0.0,96,0.00,,,0.01,Rainwise IP-100,2013-07-10 01:07:00,
2013-07-09 21:12:00,62.1,61.0,30.15,SSE,157,2.0,8.0,96,0.00,,,0.01,Rainwise IP-100,2013-07-10 01:12:00,
2013-07-09 21:17:00,62.0,61.0,30.18,SSE,157,4.0,7.0,96,0.00,,,0.01,Rainwise IP-100,2013-07-10 01:17:00,
2013-07-09 21:22:00,62.0,61.0,30.16,SSE,157,3.0,7.0,96,0.00,,,0.01,Rainwise IP-100,2013-07-10 01:22:00,
2013-07-09 21:27:00,62.0,61.0,30.16,SSE,157,3.0,6.0,96,0.00,,,0.01,Rainwise IP-100,2013-07-10 01:27:00,
2013-07-09 21:32:00,61.9,61.0,30.17,South,180,6.0,7.0,96,0.00,,,0.01,Rainwise IP-100,2013-07-10 01:32:00,
2013-07-09 21:37:00,61.9,61.0,30.14,SSE,157,9.0,9.0,96,0.00,,,0.01,Rainwise IP-100,2013-07-10 01:37:00,
2013-07-09 21:42:00,61.9,61.0,30.15,SSE,157,3.0,8.0,96,0.00,,,0.01,Rainwise IP-100,2013-07-10 01:42:00,
2013-07-09 21:47:00,61.9,61.0,30.14,ESE,112,4.0,7.0,96,0.00,,,0.01,Rainwise IP-100,2013-07-10 01:47:00,
2013-07-09 21:52:00,61.8,60.0,30.15,ESE,112,4.0,8.0,96,0.00,,,0.01,Rainwise IP-100,2013-07-10 01:52:00,
2013-07-09 21:57:00,61.6,60.0,30.16,ESE,112,4.0,6.0,96,0.00,,,0.01,Rainwise IP-100,2013-07-10 01:57:00,
2013-07-09 22:02:00,61.4,60.0,30.17,ESE,112,5.0,7.0,96,0.00,,,0.01,Rainwise IP-100,2013-07-10 02:02:00,
2013-07-09 22:07:00,61.3,60.0,30.15,SE,135,4.0,7.0,96,0.00,,,0.01,Rainwise IP-100,2013-07-10 02:07:00,
2013-07-09 22:12:00,61.4,60.0,30.14,SE,135,5.0,6.0,97,0.00,,,0.01,Rainwise IP-100,2013-07-10 02:12:00,
2013-07-09 22:17:00,61.6,60.0,30.13,SE,135,5.0,6.0,96,0.00,,,0.01,Rainwise IP-100,2013-07-10 02:17:00,
2013-07-09 22:22:00,61.4,60.0,30.14,SSE,157,5.0,9.0,96,0.00,,,0.01,Rainwise IP-100,2013-07-10 02:22:00,
2013-07-09 22:27:00,61.2,60.0,30.13,SSE,157,5.0,8.0,96,0.00,,,0.01,Rainwise IP-100,2013-07-10 02:27:00,
2013-07-09 22:32:00,61.3,60.0,30.13,SSE,157,5.0,8.0,96,0.00,,,0.01,Rainwise IP-100,2013-07-10 02:32:00,
2013-07-09 22:37:00,61.3,60.0,30.16,ESE,112,4.0,8.0,96,0.00,,,0.01,Rainwise IP-100,2013-07-10 02:37:00,
2013-07-09 22:42:00,61.4,60.0,30.14,SE,135,7.0,8.0,96,0.00,,,0.01,Rainwise IP-100,2013-07-10 02:42:00,
2013-07-09 22:47:00,61.4,60.0,30.14,SE,135,7.0,0.0,96,0.00,,,0.01,Rainwise IP-100,2013-07-10 02:47:00,
2013-07-09 22:52:00,61.3,60.0,30.15,SSE,157,5.0,9.0,96,0.00,,,0.01,Rainwise IP-100,2013-07-10 02:52:00,
2013-07-09 22:57:00,61.3,60.0,30.15,SE,135,7.0,9.0,96,0.00,,,0.01,Rainwise IP-100,2013-07-10 02:57:00,
2013-07-09 23:02:00,61.1,60.0,30.14,ESE,112,4.0,4.0,96,0.00,,,0.01,Rainwise IP-100,2013-07-10 03:02:00,
2013-07-09 23:07:00,60.9,60.0,30.16,ESE,112,2.0,9.0,96,0.00,,,0.01,Rainwise IP-100,2013-07-10 03:07:00,
2013-07-09 23:12:00,60.9,60.0,30.14,SE,135,2.0,8.0,97,0.00,,,0.01,Rainwise IP-100,2013-07-10 03:12:00,
2013-07-09 23:17:00,61.0,60.0,30.13,ESE,112,2.0,7.0,97,0.00,,,0.01,Rainwise IP-100,2013-07-10 03:17:00,
2013-07-09 23:22:00,61.2,60.0,30.13,SE,135,5.0,5.0,97,0.00,,,0.01,Rainwise IP-100,2013-07-10 03:22:00,
2013-07-09 23:27:00,61.1,60.0,30.14,SSE,157,0.0,5.0,97,0.00,,,0.01,Rainwise IP-100,2013-07-10 03:27:00,
2013-07-09 23:32:00,61.0,60.0,30.14,SSE,157,0.0,2.0,97,0.00,,,0.01,Rainwise IP-100,2013-07-10 03:32:00,
2013-07-09 23:37:00,61.1,60.0,30.13,ESE,112,0.0,2.0,97,0.00,,,0.01,Rainwise IP-100,2013-07-10 03:37:00,
2013-07-09 23:42:00,61.1,60.0,30.13,SSE,157,5.0,5.0,96,0.00,,,0.01,Rainwise IP-100,2013-07-10 03:42:00,
2013-07-09 23:47:00,60.8,59.0,30.14,ESE,112,3.0,6.0,96,0.00,,,0.01,Rainwise IP-100,2013-07-10 03:47:00,
2013-07-09 23:52:00,60.5,59.0,30.14,ESE,112,1.0,5.0,96,0.00,,,0.01,Rainwise IP-100,2013-07-10 03:52:00,
2013-07-09 23:57:00,60.3,59.0,30.17,ESE,112,0.0,3.0,97,0.00,,,0.01,Rainwise IP-100,2013-07-10 03:57:00,